createdAt,value
2023-03-01T00:00:06.017Z,9.43
2023-03-01T00:02:32.837Z,9.60
2023-03-01T00:04:59.177Z,9.23
2023-03-01T00:07:25.506Z,10.55
2023-03-01T00:09:51.836Z,8.48
2023-03-01T00:12:18.427Z,10.27
2023-03-01T00:14:45.878Z,9.40
2023-03-01T00:17:12.476Z,9.77
2023-03-01T00:19:38.808Z,9.80
2023-03-01T00:22:05.241Z,10.50
2023-03-01T00:24:31.671Z,10.05
2023-03-01T00:26:58.102Z,8.93
2023-03-01T00:29:25.864Z,9.65
2023-03-01T00:31:52.265Z,9.23
2023-03-01T00:34:19.035Z,9.55
2023-03-01T00:36:45.465Z,10.45
2023-03-01T00:39:15.515Z,9.27
2023-03-01T00:41:43.144Z,9.65
2023-03-01T00:44:09.989Z,9.90
2023-03-01T00:46:36.467Z,9.57
2023-03-01T00:49:05.374Z,11.38
2023-03-01T00:51:32.766Z,9.45
2023-03-01T00:54:02.243Z,10.20
2023-03-01T00:56:30.156Z,9.68
2023-03-01T00:58:57.162Z,9.90
2023-03-01T01:01:28.281Z,10.10
2023-03-01T01:03:58.067Z,10.18
2023-03-01T01:06:27.513Z,9.82
2023-03-01T01:08:55.575Z,9.23
2023-03-01T01:11:24.199Z,10.20
2023-03-01T01:13:51.082Z,9.82
2023-03-01T01:16:21.733Z,10.60
2023-03-01T01:18:48.480Z,8.75
2023-03-01T01:21:19.012Z,9.43
2023-03-01T01:23:46.236Z,9.82
2023-03-01T01:26:15.642Z,9.85
2023-03-01T01:28:43.243Z,9.15
2023-03-01T01:31:09.672Z,9.60
2023-03-01T01:33:36.154Z,9.38
2023-03-01T01:36:02.836Z,9.82
2023-03-01T01:38:29.296Z,9.85
2023-03-01T01:40:55.967Z,9.65
2023-03-01T01:43:31.793Z,10.00
2023-03-01T01:46:03.068Z,9.30
2023-03-01T01:48:41.489Z,8.90
2023-03-01T01:51:12.717Z,9.38
2023-03-01T01:53:41.021Z,9.73
2023-03-01T01:58:36.824Z,8.02
2023-03-01T02:01:04.320Z,8.60
2023-03-01T02:03:34.646Z,9.38
2023-03-01T02:06:10.306Z,9.13
2023-03-01T02:08:39.521Z,8.73
2023-03-01T02:11:06.543Z,8.30
2023-03-01T02:13:34.610Z,8.98
2023-03-01T02:16:04.884Z,9.07
2023-03-01T02:18:31.489Z,8.60
2023-03-01T02:21:32.919Z,9.93
2023-03-01T02:24:12.071Z,8.65
2023-03-01T02:26:46.313Z,9.00
2023-03-01T02:29:12.813Z,10.07
2023-03-01T02:31:46.063Z,10.30
2023-03-01T02:34:17.918Z,10.10
2023-03-01T02:37:09.318Z,9.88
2023-03-01T02:39:43.012Z,8.60
2023-03-01T02:42:13.770Z,9.23
2023-03-01T02:44:40.154Z,9.45
2023-03-01T02:47:07.224Z,9.68
2023-03-01T02:49:37.711Z,10.38
2023-03-01T02:52:22.148Z,10.75
2023-03-01T02:54:57.478Z,9.95
2023-03-01T02:57:25.931Z,10.25
2023-03-01T02:59:53.898Z,11.02
2023-03-01T03:02:36.902Z,9.52
2023-03-01T03:05:14.462Z,9.55
2023-03-01T03:07:42.810Z,10.00
2023-03-01T03:12:39.250Z,9.48
2023-03-01T03:15:09.759Z,10.25
2023-03-01T03:17:38.370Z,10.10
2023-03-01T03:20:12.560Z,10.73
2023-03-01T03:22:42.104Z,10.63
2023-03-01T03:25:12.661Z,10.20
2023-03-01T03:27:40.406Z,9.65
2023-03-01T03:30:13.221Z,10.70
2023-03-01T03:32:41.516Z,10.93
2023-03-01T03:37:57.728Z,9.13
2023-03-01T03:40:24.235Z,10.25
2023-03-01T03:42:50.954Z,11.23
2023-03-01T03:45:18.326Z,12.45
2023-03-01T03:47:45.690Z,11.02
2023-03-01T03:50:14.890Z,16.17
2023-03-01T03:52:41.568Z,13.98
2023-03-01T03:55:10.567Z,12.75
2023-03-01T03:57:39.369Z,11.13
2023-03-01T04:00:13.779Z,10.75
2023-03-01T04:02:41.952Z,10.40
2023-03-01T04:05:10.212Z,11.57
2023-03-01T04:07:37.435Z,9.90
2023-03-01T04:10:09.126Z,9.93
2023-03-01T04:12:35.836Z,9.38
2023-03-01T04:15:13.485Z,10.90
2023-03-01T04:17:44.872Z,10.75
2023-03-01T04:20:25.663Z,11.00
2023-03-01T04:23:17.342Z,10.82
2023-03-01T04:26:04.294Z,10.52
2023-03-01T04:28:40.879Z,11.32
2023-03-01T04:31:18.503Z,10.90
2023-03-01T04:33:53.484Z,10.07
2023-03-01T04:36:22.916Z,10.68
2023-03-01T04:38:49.422Z,11.73
2023-03-01T04:41:18.804Z,11.60
2023-03-01T04:43:45.617Z,10.40
2023-03-01T04:46:15.953Z,10.50
2023-03-01T04:48:45.243Z,11.88
2023-03-01T04:51:14.614Z,11.70
2023-03-01T04:53:42.508Z,11.20
2023-03-01T04:56:09.217Z,11.52
2023-03-01T04:58:35.732Z,11.43
2023-03-01T05:01:02.335Z,11.45
2023-03-01T05:03:29.786Z,11.18
2023-03-01T05:06:00.888Z,12.20
2023-03-01T05:08:28.147Z,11.32
2023-03-01T05:10:55.380Z,12.18
2023-03-01T05:13:22.734Z,10.87
2023-03-01T05:16:00.839Z,12.15
2023-03-01T05:21:08.003Z,11.20
2023-03-01T05:23:41.239Z,10.98
2023-03-01T05:26:22.433Z,10.80
2023-03-01T05:28:57.975Z,11.15
2023-03-01T05:31:25.835Z,12.23
2023-03-01T05:33:56.565Z,12.57
2023-03-01T05:36:24.653Z,11.40
2023-03-01T05:38:51.960Z,12.10
2023-03-01T05:41:19.214Z,14.30
2023-03-01T05:43:47.834Z,12.13
2023-03-01T05:46:16.573Z,12.07
2023-03-01T05:48:43.446Z,10.57
2023-03-01T05:51:14.099Z,12.23
2023-03-01T05:53:42.368Z,12.02
2023-03-01T05:56:09.382Z,12.40
2023-03-01T05:58:36.145Z,13.75
2023-03-01T06:01:02.496Z,13.15
2023-03-01T06:03:30.797Z,12.35
2023-03-01T06:08:31.597Z,12.32
2023-03-01T06:10:58.579Z,12.88
2023-03-01T06:16:16.001Z,12.25
2023-03-01T06:18:42.548Z,13.15
2023-03-01T06:21:10.007Z,13.05
2023-03-01T06:23:36.589Z,13.37
2023-03-01T06:26:06.986Z,13.30
2023-03-01T06:28:33.382Z,12.15
2023-03-01T06:31:00.045Z,14.00
2023-03-01T06:33:27.755Z,13.02
2023-03-01T06:35:57.769Z,13.25
2023-03-01T06:38:25.968Z,14.23
2023-03-01T06:40:55.361Z,14.30
2023-03-01T06:43:22.358Z,13.63
2023-03-01T06:45:48.864Z,14.63
2023-03-01T06:48:15.260Z,13.23
2023-03-01T06:50:41.840Z,13.52
2023-03-01T06:53:08.620Z,12.45
2023-03-01T06:55:35.080Z,13.07
2023-03-01T06:58:02.938Z,12.82
2023-03-01T07:00:29.897Z,12.25
2023-03-01T07:02:59.801Z,13.27
2023-03-01T07:05:26.201Z,12.20
2023-03-01T07:07:54.734Z,12.60
2023-03-01T07:10:21.330Z,11.55
2023-03-01T07:12:47.789Z,11.48
2023-03-01T07:15:16.186Z,11.70
2023-03-01T07:17:42.833Z,11.90
2023-03-01T07:20:10.045Z,12.38
2023-03-01T07:22:36.425Z,12.13
2023-03-01T07:25:02.879Z,12.57
2023-03-01T07:27:29.289Z,11.95
2023-03-01T07:29:55.663Z,12.60
2023-03-01T07:32:22.685Z,12.18
2023-03-01T07:34:49.349Z,12.63
2023-03-01T07:37:15.746Z,11.27
2023-03-01T07:39:42.454Z,11.52
2023-03-01T07:42:09.818Z,10.48
2023-03-01T07:44:36.511Z,11.50
2023-03-01T07:47:05.012Z,11.00
2023-03-01T07:49:32.182Z,11.60
2023-03-01T07:51:58.612Z,11.15
2023-03-01T07:54:25.433Z,10.63
2023-03-01T07:56:52.016Z,10.75
2023-03-01T07:59:18.764Z,11.10
2023-03-01T08:01:45.359Z,11.32
2023-03-01T08:04:11.879Z,10.88
2023-03-01T08:06:38.275Z,12.48
2023-03-01T08:09:04.738Z,11.77
2023-03-01T08:11:31.392Z,10.77
2023-03-01T08:13:59.207Z,11.25
2023-03-01T08:16:26.281Z,11.85
2023-03-01T08:18:52.721Z,11.43
2023-03-01T08:21:19.717Z,11.75
2023-03-01T08:23:46.501Z,11.38
2023-03-01T08:26:20.136Z,12.30
2023-03-01T08:28:47.989Z,10.55
2023-03-01T08:31:22.207Z,10.55
2023-03-01T08:33:57.428Z,10.07
2023-03-01T08:36:26.620Z,11.13
2023-03-01T08:38:55.137Z,9.98
2023-03-01T08:41:22.058Z,10.93
2023-03-01T08:43:50.986Z,10.85
2023-03-01T08:46:17.722Z,10.20
2023-03-01T08:48:44.173Z,10.60
2023-03-01T08:51:14.179Z,10.15
2023-03-01T08:53:42.716Z,10.90
2023-03-01T08:56:13.043Z,10.00
2023-03-01T08:58:42.519Z,9.57
2023-03-01T09:01:10.612Z,9.52
2023-03-01T09:03:38.766Z,9.93
2023-03-01T09:06:08.613Z,10.10
2023-03-01T09:08:37.040Z,9.95
2023-03-01T09:13:33.946Z,9.90
2023-03-01T09:16:02.437Z,9.80
2023-03-01T09:21:03.378Z,8.98
2023-03-01T09:23:29.967Z,9.45
2023-03-01T09:25:56.670Z,9.52
2023-03-01T09:28:30.001Z,8.63
2023-03-01T09:33:55.757Z,9.50
2023-03-01T09:36:26.451Z,9.07
2023-03-01T09:38:54.120Z,9.05
2023-03-01T09:41:45.376Z,8.70
2023-03-01T09:44:19.976Z,10.15
2023-03-01T09:46:47.197Z,10.20
2023-03-01T09:49:20.480Z,10.73
2023-03-01T09:51:56.739Z,9.40
2023-03-01T09:54:23.438Z,9.13
2023-03-01T09:57:14.322Z,10.02
2023-03-01T09:59:59.489Z,8.80
2023-03-01T10:02:42.659Z,9.13
2023-03-01T10:05:30.245Z,8.75
2023-03-01T10:08:19.255Z,8.43
2023-03-01T10:10:48.365Z,8.77
2023-03-01T10:13:25.108Z,9.07
2023-03-01T10:15:56.135Z,8.15
2023-03-01T10:18:34.748Z,8.32
2023-03-01T10:21:04.359Z,8.85
2023-03-01T10:23:36.777Z,8.82
2023-03-01T10:26:31.278Z,8.63
2023-03-01T10:29:08.767Z,8.63
2023-03-01T10:31:44.091Z,7.72
2023-03-01T10:34:19.429Z,7.97
2023-03-01T10:36:50.609Z,8.20
2023-03-01T10:39:23.137Z,8.45
2023-03-01T10:42:03.128Z,8.48
2023-03-01T10:44:44.946Z,8.98
2023-03-01T10:47:26.391Z,7.30
2023-03-01T10:50:09.678Z,9.10
2023-03-01T10:52:38.755Z,8.73
2023-03-01T10:55:28.061Z,9.65
2023-03-01T10:58:21.088Z,8.70
2023-03-01T11:00:54.530Z,8.98
2023-03-01T11:03:24.713Z,9.60
2023-03-01T11:05:58.148Z,9.30
2023-03-01T11:08:43.481Z,9.00
2023-03-01T11:11:33.249Z,9.38
2023-03-01T11:14:23.654Z,9.13
2023-03-01T11:17:13.809Z,9.15
2023-03-01T11:19:40.322Z,9.45
2023-03-01T11:22:18.952Z,9.57
2023-03-01T11:24:57.250Z,9.82
2023-03-01T11:27:33.877Z,10.23
2023-03-01T11:30:15.278Z,10.27
2023-03-01T11:32:56.341Z,9.32
2023-03-01T11:35:26.384Z,9.85
2023-03-01T11:38:17.889Z,9.90
2023-03-01T11:41:17.718Z,9.00
2023-03-01T11:44:02.419Z,9.57
2023-03-01T11:47:15.713Z,9.50
2023-03-01T11:50:03.177Z,9.45
2023-03-01T11:52:56.048Z,8.93
2023-03-01T11:55:54.557Z,9.02
2023-03-01T11:58:58.058Z,9.60
2023-03-01T12:01:42.177Z,8.55
2023-03-01T12:04:46.160Z,9.07
2023-03-01T12:07:37.102Z,9.27
2023-03-01T12:10:22.975Z,9.40
2023-03-01T12:13:13.270Z,8.05
2023-03-01T12:16:25.921Z,9.80
2023-03-01T12:19:07.195Z,9.80
2023-03-01T12:21:42.082Z,9.15
2023-03-01T12:24:41.275Z,9.60
2023-03-01T12:27:20.711Z,9.55
2023-03-01T12:29:53.256Z,8.35
2023-03-01T12:32:45.434Z,9.77
2023-03-01T12:35:33.909Z,9.00
2023-03-01T12:38:09.128Z,9.63
2023-03-01T12:40:47.708Z,9.02
2023-03-01T12:43:34.162Z,9.38
2023-03-01T12:46:22.130Z,9.57
2023-03-01T12:49:11.776Z,8.93
2023-03-01T12:51:40.398Z,9.60
2023-03-01T12:54:16.024Z,8.82
2023-03-01T12:56:43.762Z,9.40
2023-03-01T12:59:10.058Z,8.32
2023-03-01T13:01:46.841Z,8.70
2023-03-01T13:04:20.472Z,8.10
2023-03-01T13:07:01.090Z,8.82
2023-03-01T13:09:36.474Z,8.85
2023-03-01T13:12:08.056Z,7.95
2023-03-01T13:14:38.145Z,8.23
2023-03-01T13:17:04.653Z,8.75
2023-03-01T13:19:33.422Z,8.35
2023-03-01T13:22:00.415Z,7.97
2023-03-01T13:24:43.387Z,7.65
2023-03-01T13:27:12.417Z,8.00
2023-03-01T13:29:46.118Z,7.53
2023-03-01T13:32:43.135Z,8.23
2023-03-01T13:35:17.952Z,7.70
2023-03-01T13:37:45.491Z,7.75
2023-03-01T13:40:19.517Z,7.88
2023-03-01T13:43:05.184Z,7.90
2023-03-01T13:45:40.522Z,7.82
2023-03-01T13:48:16.080Z,8.02
2023-03-01T13:50:52.533Z,8.63
2023-03-01T13:53:22.276Z,7.70
2023-03-01T13:55:57.005Z,8.15
2023-03-01T13:58:28.129Z,7.72
2023-03-01T14:01:21.054Z,7.72
2023-03-01T14:03:47.678Z,6.68
2023-03-01T14:06:20.874Z,8.48
2023-03-01T14:09:15.559Z,8.52
2023-03-01T14:12:14.383Z,7.53
2023-03-01T14:14:51.094Z,8.15
2023-03-01T14:17:42.888Z,8.45
2023-03-01T14:20:18.133Z,8.02
2023-03-01T14:22:45.817Z,7.65
2023-03-01T14:25:31.015Z,7.07
2023-03-01T14:28:05.438Z,6.70
2023-03-01T14:30:39.407Z,7.43
2023-03-01T14:33:18.789Z,7.25
2023-03-01T14:35:54.924Z,7.45
2023-03-01T14:38:39.309Z,7.28
2023-03-01T14:41:28.524Z,7.85
2023-03-01T14:44:06.591Z,7.43
2023-03-01T14:46:41.840Z,7.18
2023-03-01T14:49:22.826Z,6.70
2023-03-01T14:52:01.590Z,6.82
2023-03-01T14:54:58.441Z,7.00
2023-03-01T14:57:27.321Z,7.00
2023-03-01T14:59:58.222Z,7.20
2023-03-01T15:02:28.220Z,7.15
2023-03-01T15:05:08.071Z,7.65
2023-03-01T15:07:41.508Z,6.57
2023-03-01T15:10:18.447Z,7.22
2023-03-01T15:12:45.104Z,6.45
2023-03-01T15:15:31.070Z,6.85
2023-03-01T15:18:04.126Z,7.10
2023-03-01T15:20:36.167Z,5.95
2023-03-01T15:23:03.499Z,6.65
2023-03-01T15:25:31.968Z,6.70
2023-03-01T15:28:01.227Z,6.90
2023-03-01T15:30:38.685Z,6.32
2023-03-01T15:33:36.126Z,5.75
2023-03-01T15:36:24.718Z,6.47
2023-03-01T15:38:56.419Z,6.05
2023-03-01T15:41:29.383Z,5.97
2023-03-01T15:43:56.648Z,6.03
2023-03-01T15:46:31.087Z,6.20
2023-03-01T15:49:00.774Z,6.10
2023-03-01T15:51:46.913Z,5.97
2023-03-01T15:54:22.085Z,5.72
2023-03-01T15:56:49.588Z,5.75
2023-03-01T15:59:16.221Z,5.80
2023-03-01T16:01:44.954Z,6.13
2023-03-01T16:04:21.439Z,6.45
2023-03-01T16:06:54.879Z,6.38
2023-03-01T16:09:23.967Z,6.70
2023-03-01T16:11:51.645Z,5.95
2023-03-01T16:14:18.204Z,6.50
2023-03-01T16:16:45.222Z,6.45
2023-03-01T16:19:12.414Z,6.55
2023-03-01T16:21:39.150Z,6.35
2023-03-01T16:24:06.096Z,5.75
2023-03-01T16:26:33.227Z,5.30
2023-03-01T16:28:59.997Z,6.47
2023-03-01T16:31:30.114Z,5.90
2023-03-01T16:33:58.564Z,5.70
2023-03-01T16:36:28.970Z,5.20
2023-03-01T16:38:58.527Z,6.05
2023-03-01T16:41:25.655Z,5.63
2023-03-01T16:43:52.300Z,5.97
2023-03-01T16:46:25.592Z,5.53
2023-03-01T16:48:53.200Z,5.38
2023-03-01T16:51:21.059Z,5.43
2023-03-01T16:53:48.045Z,5.05
2023-03-01T16:56:15.483Z,5.78
2023-03-01T16:58:42.631Z,5.07
2023-03-01T17:01:15.252Z,5.93
2023-03-01T17:03:42.370Z,5.18
2023-03-01T17:06:15.214Z,5.10
2023-03-01T17:08:41.989Z,4.82
2023-03-01T17:11:15.082Z,5.53
2023-03-01T17:13:42.419Z,5.25
2023-03-01T17:16:11.845Z,4.82
2023-03-01T17:18:38.963Z,4.97
2023-03-01T17:21:07.781Z,4.95
2023-03-01T17:23:35.860Z,5.20
2023-03-01T17:26:02.717Z,5.47
2023-03-01T17:28:31.849Z,5.30
2023-03-01T17:31:00.289Z,5.85
2023-03-01T17:33:27.432Z,5.95
2023-03-01T17:35:56.494Z,5.50
2023-03-01T17:38:23.066Z,6.40
2023-03-01T17:40:49.897Z,6.18
2023-03-01T17:43:18.005Z,6.03
2023-03-01T17:45:48.738Z,6.28
2023-03-01T17:48:17.031Z,5.55
2023-03-01T17:50:43.624Z,6.22
2023-03-01T17:53:10.526Z,7.07
2023-03-01T17:55:38.237Z,7.05
2023-03-01T17:58:06.012Z,6.35
2023-03-01T18:00:32.537Z,6.63
2023-03-01T18:02:59.075Z,6.80
2023-03-01T18:05:26.131Z,6.47
2023-03-01T18:07:53.611Z,7.03
2023-03-01T18:10:20.596Z,8.18
2023-03-01T18:12:47.039Z,7.35
2023-03-01T18:15:13.425Z,7.57
2023-03-01T18:17:40.703Z,6.15
2023-03-01T18:20:07.962Z,7.03
2023-03-01T18:22:34.394Z,6.80
2023-03-01T18:25:01.777Z,6.78
2023-03-01T18:27:28.237Z,7.57
2023-03-01T18:29:57.035Z,6.93
2023-03-01T18:32:24.808Z,6.97
2023-03-01T18:34:51.249Z,6.97
2023-03-01T18:37:18.721Z,7.25
2023-03-01T18:39:45.094Z,6.40
2023-03-01T18:42:11.751Z,7.40
2023-03-01T18:44:38.510Z,7.95
2023-03-01T18:47:06.030Z,7.88
2023-03-01T18:49:32.360Z,7.90
2023-03-01T18:52:00.150Z,7.55
2023-03-01T18:54:26.460Z,7.28
2023-03-01T18:56:52.883Z,8.20
2023-03-01T18:59:19.474Z,7.90
2023-03-01T19:01:45.948Z,7.13
2023-03-01T19:04:12.721Z,7.28
2023-03-01T19:06:39.298Z,7.38
2023-03-01T19:09:08.861Z,7.97
2023-03-01T19:11:35.852Z,7.90
2023-03-01T19:14:03.761Z,7.05
2023-03-01T19:16:36.814Z,7.82
2023-03-01T19:19:06.323Z,7.47
2023-03-01T19:21:33.504Z,7.47
2023-03-01T19:24:02.563Z,7.97
2023-03-01T19:26:29.156Z,7.43
2023-03-01T19:28:56.652Z,7.25
2023-03-01T19:31:26.205Z,8.32
2023-03-01T19:33:59.416Z,7.65
2023-03-01T19:36:35.024Z,7.05
2023-03-01T19:39:04.011Z,8.00
2023-03-01T19:41:31.280Z,7.38
2023-03-01T19:43:58.156Z,7.50
2023-03-01T19:46:25.504Z,6.78
2023-03-01T19:48:53.556Z,7.40
2023-03-01T19:51:20.183Z,7.60
2023-03-01T19:53:47.537Z,7.40
2023-03-01T19:56:13.905Z,7.97
2023-03-01T19:58:40.319Z,7.40
2023-03-01T20:01:15.329Z,7.43
2023-03-01T20:03:42.240Z,7.65
2023-03-01T20:06:14.644Z,7.25
2023-03-01T20:08:41.157Z,7.53
2023-03-01T20:11:10.063Z,7.10
2023-03-01T20:13:37.022Z,7.03
2023-03-01T20:16:04.960Z,7.32
2023-03-01T20:18:32.069Z,6.95
2023-03-01T20:20:59.885Z,7.97
2023-03-01T20:23:26.862Z,7.18
2023-03-01T20:26:01.901Z,6.95
2023-03-01T20:28:28.265Z,7.93
2023-03-01T20:30:54.855Z,7.72
2023-03-01T20:33:21.211Z,6.97
2023-03-01T20:35:47.827Z,7.22
2023-03-01T20:38:14.229Z,7.47
2023-03-01T20:40:40.822Z,7.13
2023-03-01T20:43:07.185Z,7.35
2023-03-01T20:45:33.544Z,7.07
2023-03-01T20:48:00.222Z,6.93
2023-03-01T20:50:26.784Z,7.07
2023-03-01T20:52:53.370Z,7.90
2023-03-01T20:55:19.747Z,6.82
2023-03-01T20:57:46.056Z,6.63
2023-03-01T21:00:13.004Z,6.93
2023-03-01T21:02:39.380Z,7.13
2023-03-01T21:05:06.707Z,6.75
2023-03-01T21:07:33.339Z,7.35
2023-03-01T21:09:59.934Z,7.15
2023-03-01T21:12:26.513Z,7.43
2023-03-01T21:15:09.722Z,6.60
2023-03-01T21:17:37.601Z,7.82
2023-03-01T21:20:04.965Z,6.90
2023-03-01T21:22:32.955Z,7.78
2023-03-01T21:24:59.320Z,8.07
2023-03-01T21:27:25.638Z,7.03
2023-03-01T21:29:52.048Z,7.68
2023-03-01T21:32:21.086Z,6.88
2023-03-01T21:34:47.967Z,7.22
2023-03-01T21:37:14.416Z,7.13
2023-03-01T21:39:41.021Z,6.85
2023-03-01T21:42:07.379Z,7.60
2023-03-01T21:44:34.286Z,7.53
2023-03-01T21:47:00.909Z,7.35
2023-03-01T21:49:27.972Z,7.18
2023-03-01T21:51:54.851Z,6.97
2023-03-01T21:54:21.506Z,7.57
2023-03-01T21:56:50.838Z,7.25
2023-03-01T21:59:24.306Z,7.22
2023-03-01T22:01:51.924Z,7.53
2023-03-01T22:04:19.958Z,7.60
2023-03-01T22:06:47.291Z,8.00
2023-03-01T22:09:21.867Z,7.43
2023-03-01T22:11:50.122Z,7.63
2023-03-01T22:14:18.265Z,7.75
2023-03-01T22:16:45.637Z,8.15
2023-03-01T22:19:14.816Z,8.80
2023-03-01T22:21:43.827Z,8.27
2023-03-01T22:24:12.151Z,8.00
2023-03-01T22:26:44.364Z,8.00
2023-03-01T22:29:14.908Z,7.57
2023-03-01T22:31:41.990Z,8.32
2023-03-01T22:34:08.754Z,7.40
2023-03-01T22:36:35.467Z,7.30
2023-03-01T22:39:02.488Z,7.32
2023-03-01T22:41:39.248Z,8.60
2023-03-01T22:44:05.561Z,8.05
2023-03-01T22:46:32.657Z,7.50
2023-03-01T22:48:59.500Z,7.25
2023-03-01T22:51:34.788Z,7.20
2023-03-01T22:54:01.472Z,6.90
2023-03-01T22:56:34.663Z,7.10
2023-03-01T22:59:09.582Z,7.20
2023-03-01T23:01:37.738Z,7.38
2023-03-01T23:04:04.371Z,7.78
2023-03-01T23:06:31.704Z,7.40
2023-03-01T23:09:01.274Z,8.03
2023-03-01T23:11:28.127Z,7.82
2023-03-01T23:13:54.947Z,7.63
2023-03-01T23:16:26.169Z,7.70
2023-03-01T23:18:58.169Z,8.48
2023-03-01T23:21:24.982Z,8.05
2023-03-01T23:23:51.716Z,7.10
2023-03-01T23:26:18.549Z,7.75
2023-03-01T23:28:45.261Z,7.57
2023-03-01T23:31:14.127Z,7.85
2023-03-01T23:33:43.350Z,8.13
2023-03-01T23:36:21.569Z,8.55
2023-03-01T23:38:49.919Z,7.30
2023-03-01T23:41:19.579Z,7.88
2023-03-01T23:43:47.372Z,8.15
2023-03-01T23:46:17.927Z,8.38
2023-03-01T23:48:45.624Z,8.13
2023-03-01T23:51:13.557Z,7.85
2023-03-01T23:53:43.132Z,8.50
2023-03-01T23:56:13.397Z,8.07
2023-03-01T23:58:40.042Z,8.10
